sensor_id;sensor_type;location;lat;lon;timestamp;temperature;humidity
12981;DHT22;6555;50.468;8.480;2023-04-15T00:03:03;9.20;46.10
12981;DHT22;6555;50.468;8.480;2023-04-15T00:08:07;9.20;46.30
12981;DHT22;6555;50.468;8.480;2023-04-15T00:13:14;9.20;46.40
12981;DHT22;6555;50.468;8.480;2023-04-15T00:18:18;9.10;46.40
12981;DHT22;6555;50.468;8.480;2023-04-15T00:23:24;9.10;46.30
12981;DHT22;6555;50.468;8.480;2023-04-15T00:28:27;9.00;46.10
12981;DHT22;6555;50.468;8.480;2023-04-15T00:33:38;8.90;46.30
12981;DHT22;6555;50.468;8.480;2023-04-15T00:38:42;8.90;46.40
12981;DHT22;6555;50.468;8.480;2023-04-15T00:43:53;8.80;46.40
12981;DHT22;6555;50.468;8.480;2023-04-15T00:48:58;8.80;46.80
12981;DHT22;6555;50.468;8.480;2023-04-15T00:54:03;8.80;46.60
12981;DHT22;6555;50.468;8.480;2023-04-15T00:59:07;8.80;46.60
12981;DHT22;6555;50.468;8.480;2023-04-15T01:04:12;8.80;46.70
12981;DHT22;6555;50.468;8.480;2023-04-15T01:09:18;8.80;46.70
12981;DHT22;6555;50.468;8.480;2023-04-15T01:14:21;8.80;46.60
12981;DHT22;6555;50.468;8.480;2023-04-15T01:19:26;8.80;46.60
12981;DHT22;6555;50.468;8.480;2023-04-15T01:24:31;8.80;46.70
12981;DHT22;6555;50.468;8.480;2023-04-15T01:29:37;8.70;46.70
12981;DHT22;6555;50.468;8.480;2023-04-15T01:34:41;8.70;46.50
12981;DHT22;6555;50.468;8.480;2023-04-15T01:39:44;8.50;46.20
12981;DHT22;6555;50.468;8.480;2023-04-15T01:44:49;8.40;46.30
12981;DHT22;6555;50.468;8.480;2023-04-15T01:49:54;8.30;46.50
12981;DHT22;6555;50.468;8.480;2023-04-15T01:55:03;8.20;46.60
12981;DHT22;6555;50.468;8.480;2023-04-15T02:00:11;8.20;46.80
12981;DHT22;6555;50.468;8.480;2023-04-15T02:05:14;8.20;47.00
12981;DHT22;6555;50.468;8.480;2023-04-15T02:10:21;8.10;46.90
12981;DHT22;6555;50.468;8.480;2023-04-15T02:15:29;8.10;46.90
12981;DHT22;6555;50.468;8.480;2023-04-15T02:20:32;8.10;46.90
12981;DHT22;6555;50.468;8.480;2023-04-15T02:25:42;8.10;46.90
12981;DHT22;6555;50.468;8.480;2023-04-15T02:30:56;8.10;47.00
12981;DHT22;6555;50.468;8.480;2023-04-15T02:36:00;8.10;47.00
12981;DHT22;6555;50.468;8.480;2023-04-15T02:41:06;8.10;46.80
12981;DHT22;6555;50.468;8.480;2023-04-15T02:46:11;8.00;46.70
12981;DHT22;6555;50.468;8.480;2023-04-15T02:51:17;8.00;46.80
12981;DHT22;6555;50.468;8.480;2023-04-15T02:56:21;7.90;46.80
12981;DHT22;6555;50.468;8.480;2023-04-15T03:01:29;7.90;46.90
12981;DHT22;6555;50.468;8.480;2023-04-15T03:06:32;7.80;47.10
12981;DHT22;6555;50.468;8.480;2023-04-15T03:11:38;7.80;46.90
12981;DHT22;6555;50.468;8.480;2023-04-15T03:16:45;7.70;46.90
12981;DHT22;6555;50.468;8.480;2023-04-15T03:22:01;7.60;46.80
12981;DHT22;6555;50.468;8.480;2023-04-15T03:27:05;7.60;46.90
12981;DHT22;6555;50.468;8.480;2023-04-15T03:32:11;7.50;46.90
12981;DHT22;6555;50.468;8.480;2023-04-15T03:37:23;7.40;46.80
12981;DHT22;6555;50.468;8.480;2023-04-15T03:42:27;7.40;46.90
12981;DHT22;6555;50.468;8.480;2023-04-15T03:47:38;7.20;46.80
12981;DHT22;6555;50.468;8.480;2023-04-15T03:52:44;7.10;47.10
12981;DHT22;6555;50.468;8.480;2023-04-15T03:57:49;7.00;47.00
12981;DHT22;6555;50.468;8.480;2023-04-15T04:03:08;6.90;47.10
12981;DHT22;6555;50.468;8.480;2023-04-15T04:08:15;6.90;47.20
12981;DHT22;6555;50.468;8.480;2023-04-15T04:13:20;6.80;47.20
12981;DHT22;6555;50.468;8.480;2023-04-15T04:18:24;6.80;47.40
12981;DHT22;6555;50.468;8.480;2023-04-15T04:23:29;6.80;47.60
12981;DHT22;6555;50.468;8.480;2023-04-15T04:28:32;6.90;47.50
12981;DHT22;6555;50.468;8.480;2023-04-15T04:33:39;6.80;47.30
12981;DHT22;6555;50.468;8.480;2023-04-15T04:38:42;6.80;47.30
12981;DHT22;6555;50.468;8.480;2023-04-15T04:43:48;6.70;47.40
12981;DHT22;6555;50.468;8.480;2023-04-15T04:48:53;6.70;47.50
12981;DHT22;6555;50.468;8.480;2023-04-15T04:53:56;6.60;47.60
12981;DHT22;6555;50.468;8.480;2023-04-15T04:59:04;6.70;47.80
12981;DHT22;6555;50.468;8.480;2023-04-15T05:04:12;6.70;47.80
12981;DHT22;6555;50.468;8.480;2023-04-15T05:09:20;6.70;47.90
12981;DHT22;6555;50.468;8.480;2023-04-15T05:14:24;6.70;47.90
12981;DHT22;6555;50.468;8.480;2023-04-15T05:19:28;6.70;47.90
12981;DHT22;6555;50.468;8.480;2023-04-15T05:24:32;6.70;47.90
12981;DHT22;6555;50.468;8.480;2023-04-15T05:29:35;6.70;48.10
12981;DHT22;6555;50.468;8.480;2023-04-15T05:34:40;6.70;48.20
12981;DHT22;6555;50.468;8.480;2023-04-15T05:39:43;6.70;48.30
12981;DHT22;6555;50.468;8.480;2023-04-15T05:44:46;6.80;48.30
12981;DHT22;6555;50.468;8.480;2023-04-15T05:49:52;6.80;48.30
12981;DHT22;6555;50.468;8.480;2023-04-15T05:54:56;6.90;48.60
12981;DHT22;6555;50.468;8.480;2023-04-15T05:59:59;6.90;48.70
12981;DHT22;6555;50.468;8.480;2023-04-15T06:05:12;7.00;48.90
12981;DHT22;6555;50.468;8.480;2023-04-15T06:10:15;7.10;49.00
12981;DHT22;6555;50.468;8.480;2023-04-15T06:15:18;7.20;48.90
12981;DHT22;6555;50.468;8.480;2023-04-15T06:20:23;7.30;49.10
12981;DHT22;6555;50.468;8.480;2023-04-15T06:25:27;7.40;49.10
12981;DHT22;6555;50.468;8.480;2023-04-15T06:30:30;7.50;49.20
12981;DHT22;6555;50.468;8.480;2023-04-15T06:35:35;7.70;49.30
12981;DHT22;6555;50.468;8.480;2023-04-15T06:40:40;7.70;49.40
12981;DHT22;6555;50.468;8.480;2023-04-15T06:45:43;7.80;49.30
12981;DHT22;6555;50.468;8.480;2023-04-15T06:50:48;8.00;49.30
12981;DHT22;6555;50.468;8.480;2023-04-15T06:55:51;8.00;49.30
12981;DHT22;6555;50.468;8.480;2023-04-15T07:01:06;8.10;49.50
12981;DHT22;6555;50.468;8.480;2023-04-15T07:06:11;8.20;49.70
12981;DHT22;6555;50.468;8.480;2023-04-15T07:11:18;8.30;49.90
12981;DHT22;6555;50.468;8.480;2023-04-15T07:16:25;8.50;49.90
12981;DHT22;6555;50.468;8.480;2023-04-15T07:21:52;8.60;50.00
12981;DHT22;6555;50.468;8.480;2023-04-15T07:26:56;8.80;50.30
12981;DHT22;6555;50.468;8.480;2023-04-15T07:32:14;8.90;50.20
12981;DHT22;6555;50.468;8.480;2023-04-15T07:37:28;9.10;50.30
12981;DHT22;6555;50.468;8.480;2023-04-15T07:42:32;9.30;50.70
12981;DHT22;6555;50.468;8.480;2023-04-15T07:47:36;9.40;50.40
12981;DHT22;6555;50.468;8.480;2023-04-15T07:52:41;9.60;50.40
12981;DHT22;6555;50.468;8.480;2023-04-15T07:58:01;9.80;50.40
12981;DHT22;6555;50.468;8.480;2023-04-15T08:03:11;9.90;50.60
12981;DHT22;6555;50.468;8.480;2023-04-15T08:08:18;10.10;50.80
12981;DHT22;6555;50.468;8.480;2023-04-15T08:13:25;10.20;50.50
12981;DHT22;6555;50.468;8.480;2023-04-15T08:18:41;10.40;50.50
12981;DHT22;6555;50.468;8.480;2023-04-15T08:23:50;10.50;50.80
12981;DHT22;6555;50.468;8.480;2023-04-15T08:29:02;10.70;50.60
12981;DHT22;6555;50.468;8.480;2023-04-15T08:34:10;10.80;50.50
12981;DHT22;6555;50.468;8.480;2023-04-15T08:39:15;11.00;50.70
12981;DHT22;6555;50.468;8.480;2023-04-15T08:44:47;11.20;50.90
12981;DHT22;6555;50.468;8.480;2023-04-15T08:49:52;11.40;50.80
12981;DHT22;6555;50.468;8.480;2023-04-15T08:54:59;11.60;50.90
12981;DHT22;6555;50.468;8.480;2023-04-15T09:00:05;11.80;50.90
12981;DHT22;6555;50.468;8.480;2023-04-15T09:05:10;11.90;50.90
12981;DHT22;6555;50.468;8.480;2023-04-15T09:10:22;12.10;50.90
12981;DHT22;6555;50.468;8.480;2023-04-15T09:15:29;12.30;50.90
12981;DHT22;6555;50.468;8.480;2023-04-15T09:20:38;12.40;50.60
12981;DHT22;6555;50.468;8.480;2023-04-15T09:25:44;12.60;50.40
12981;DHT22;6555;50.468;8.480;2023-04-15T09:56:09;13.00;49.70
12981;DHT22;6555;50.468;8.480;2023-04-15T10:02:20;13.10;49.70
12981;DHT22;6555;50.468;8.480;2023-04-15T10:08:15;13.10;49.70
12981;DHT22;6555;50.468;8.480;2023-04-15T10:14:31;13.10;49.70
12981;DHT22;6555;50.468;8.480;2023-04-15T10:20:30;13.20;49.50
12981;DHT22;6555;50.468;8.480;2023-04-15T10:26:43;13.20;49.10
12981;DHT22;6555;50.468;8.480;2023-04-15T10:32:47;13.30;49.20
12981;DHT22;6555;50.468;8.480;2023-04-15T10:38:49;13.40;49.30
12981;DHT22;6555;50.468;8.480;2023-04-15T10:57:15;13.60;49.20
12981;DHT22;6555;50.468;8.480;2023-04-15T11:02:41;13.60;49.30
12981;DHT22;6555;50.468;8.480;2023-04-15T11:08:15;13.60;49.20
12981;DHT22;6555;50.468;8.480;2023-04-15T11:13:35;13.60;49.20
12981;DHT22;6555;50.468;8.480;2023-04-15T11:19:35;13.50;49.20
12981;DHT22;6555;50.468;8.480;2023-04-15T11:24:53;13.40;49.40
12981;DHT22;6555;50.468;8.480;2023-04-15T11:30:26;13.40;49.20
12981;DHT22;6555;50.468;8.480;2023-04-15T11:35:47;13.30;49.60
12981;DHT22;6555;50.468;8.480;2023-04-15T11:41:21;13.20;49.50
12981;DHT22;6555;50.468;8.480;2023-04-15T11:46:39;13.20;49.90
12981;DHT22;6555;50.468;8.480;2023-04-15T11:52:14;13.20;49.60
12981;DHT22;6555;50.468;8.480;2023-04-15T12:03:25;13.10;50.00
12981;DHT22;6555;50.468;8.480;2023-04-15T12:09:02;13.00;49.90
12981;DHT22;6555;50.468;8.480;2023-04-15T12:14:22;13.00;50.40
12981;DHT22;6555;50.468;8.480;2023-04-15T12:19:56;13.00;50.00
12981;DHT22;6555;50.468;8.480;2023-04-15T12:25:13;12.90;50.50
12981;DHT22;6555;50.468;8.480;2023-04-15T12:30:48;12.90;50.10
12981;DHT22;6555;50.468;8.480;2023-04-15T12:36:06;12.90;50.60
12981;DHT22;6555;50.468;8.480;2023-04-15T12:59:42;12.80;50.30
12981;DHT22;6555;50.468;8.480;2023-04-15T13:04:59;12.80;50.90
12981;DHT22;6555;50.468;8.480;2023-04-15T13:10:50;12.80;50.60
12981;DHT22;6555;50.468;8.480;2023-04-15T13:16:08;12.80;51.00
12981;DHT22;6555;50.468;8.480;2023-04-15T13:21:43;12.70;50.70
12981;DHT22;6555;50.468;8.480;2023-04-15T13:27:03;12.70;51.20
12981;DHT22;6555;50.468;8.480;2023-04-15T13:32:34;12.70;50.80
12981;DHT22;6555;50.468;8.480;2023-04-15T13:37:52;12.70;51.10
12981;DHT22;6555;50.468;8.480;2023-04-15T13:43:27;12.60;50.70
12981;DHT22;6555;50.468;8.480;2023-04-15T13:48:45;12.60;50.90
12981;DHT22;6555;50.468;8.480;2023-04-15T13:54:19;12.50;50.90
12981;DHT22;6555;50.468;8.480;2023-04-15T13:59:52;12.50;51.40
12981;DHT22;6555;50.468;8.480;2023-04-15T14:05:23;12.50;51.50
12981;DHT22;6555;50.468;8.480;2023-04-15T14:10:40;12.50;51.40
12981;DHT22;6555;50.468;8.480;2023-04-15T14:16:10;12.50;51.00
12981;DHT22;6555;50.468;8.480;2023-04-15T14:21:30;12.50;51.40
12981;DHT22;6555;50.468;8.480;2023-04-15T14:27:01;12.40;51.20
12981;DHT22;6555;50.468;8.480;2023-04-15T14:32:18;12.30;51.50
12981;DHT22;6555;50.468;8.480;2023-04-15T14:37:49;12.30;51.30
12981;DHT22;6555;50.468;8.480;2023-04-15T14:43:06;12.20;51.70
12981;DHT22;6555;50.468;8.480;2023-04-15T14:48:36;12.20;51.30
12981;DHT22;6555;50.468;8.480;2023-04-15T14:53:54;12.20;51.80
12981;DHT22;6555;50.468;8.480;2023-04-15T14:59:25;12.10;51.70
12981;DHT22;6555;50.468;8.480;2023-04-15T15:04:41;12.10;52.20
12981;DHT22;6555;50.468;8.480;2023-04-15T15:10:13;12.10;51.80
12981;DHT22;6555;50.468;8.480;2023-04-15T15:15:50;12.00;52.30
12981;DHT22;6555;50.468;8.480;2023-04-15T15:21:21;12.00;51.80
12981;DHT22;6555;50.468;8.480;2023-04-15T15:26:39;12.10;52.50
12981;DHT22;6555;50.468;8.480;2023-04-15T15:32:12;12.10;52.20
12981;DHT22;6555;50.468;8.480;2023-04-15T15:37:29;12.10;52.50
12981;DHT22;6555;50.468;8.480;2023-04-15T15:43:01;12.00;52.00
12981;DHT22;6555;50.468;8.480;2023-04-15T15:48:19;12.00;52.50
12981;DHT22;6555;50.468;8.480;2023-04-15T15:53:49;12.00;52.00
12981;DHT22;6555;50.468;8.480;2023-04-15T15:59:08;12.00;52.60
12981;DHT22;6555;50.468;8.480;2023-04-15T16:04:32;12.00;52.30
12981;DHT22;6555;50.468;8.480;2023-04-15T16:09:56;12.00;52.10
12981;DHT22;6555;50.468;8.480;2023-04-15T16:15:17;12.00;52.60
12981;DHT22;6555;50.468;8.480;2023-04-15T16:20:48;12.00;52.20
12981;DHT22;6555;50.468;8.480;2023-04-15T16:26:04;12.00;52.70
12981;DHT22;6555;50.468;8.480;2023-04-15T16:31:37;12.00;52.40
12981;DHT22;6555;50.468;8.480;2023-04-15T16:36:55;12.00;53.00
12981;DHT22;6555;50.468;8.480;2023-04-15T16:42:27;12.00;52.40
12981;DHT22;6555;50.468;8.480;2023-04-15T16:47:45;12.00;52.80
12981;DHT22;6555;50.468;8.480;2023-04-15T16:53:18;12.00;52.40
12981;DHT22;6555;50.468;8.480;2023-04-15T16:58:34;12.00;52.70
12981;DHT22;6555;50.468;8.480;2023-04-15T17:04:08;12.00;52.30
12981;DHT22;6555;50.468;8.480;2023-04-15T17:09:25;12.00;52.90
12981;DHT22;6555;50.468;8.480;2023-04-15T17:14:57;12.00;52.40
12981;DHT22;6555;50.468;8.480;2023-04-15T17:20:14;12.00;52.80
12981;DHT22;6555;50.468;8.480;2023-04-15T17:25:45;12.00;52.30
12981;DHT22;6555;50.468;8.480;2023-04-15T17:31:02;11.90;52.80
12981;DHT22;6555;50.468;8.480;2023-04-15T17:36:35;11.90;52.60
12981;DHT22;6555;50.468;8.480;2023-04-15T17:41:55;11.90;53.10
12981;DHT22;6555;50.468;8.480;2023-04-15T17:47:29;11.90;52.70
12981;DHT22;6555;50.468;8.480;2023-04-15T17:52:46;11.90;53.00
12981;DHT22;6555;50.468;8.480;2023-04-15T17:58:17;11.90;52.80
12981;DHT22;6555;50.468;8.480;2023-04-15T18:03:35;11.90;52.90
12981;DHT22;6555;50.468;8.480;2023-04-15T18:09:07;11.90;52.60
12981;DHT22;6555;50.468;8.480;2023-04-15T18:14:25;11.90;53.20
12981;DHT22;6555;50.468;8.480;2023-04-15T18:19:55;11.90;52.70
12981;DHT22;6555;50.468;8.480;2023-04-15T18:25:21;11.90;53.10
12981;DHT22;6555;50.468;8.480;2023-04-15T18:30:52;11.90;53.30
12981;DHT22;6555;50.468;8.480;2023-04-15T18:36:10;11.90;54.00
12981;DHT22;6555;50.468;8.480;2023-04-15T18:41:43;11.90;52.90
12981;DHT22;6555;50.468;8.480;2023-04-15T18:47:00;11.90;53.30
12981;DHT22;6555;50.468;8.480;2023-04-15T18:52:30;11.90;52.90
12981;DHT22;6555;50.468;8.480;2023-04-15T18:57:50;11.90;53.30
12981;DHT22;6555;50.468;8.480;2023-04-15T19:03:23;11.90;53.00
12981;DHT22;6555;50.468;8.480;2023-04-15T19:08:44;11.90;53.20
12981;DHT22;6555;50.468;8.480;2023-04-15T19:14:15;11.80;52.80
12981;DHT22;6555;50.468;8.480;2023-04-15T19:19:32;11.90;53.30
12981;DHT22;6555;50.468;8.480;2023-04-15T19:25:02;11.80;52.80
12981;DHT22;6555;50.468;8.480;2023-04-15T19:30:21;11.80;53.30
12981;DHT22;6555;50.468;8.480;2023-04-15T19:35:55;11.80;53.00
12981;DHT22;6555;50.468;8.480;2023-04-15T19:41:11;11.80;53.30
12981;DHT22;6555;50.468;8.480;2023-04-15T19:46:42;11.80;53.10
12981;DHT22;6555;50.468;8.480;2023-04-15T19:52:00;11.80;53.50
12981;DHT22;6555;50.468;8.480;2023-04-15T19:57:30;11.80;53.10
12981;DHT22;6555;50.468;8.480;2023-04-15T20:02:48;11.70;53.60
12981;DHT22;6555;50.468;8.480;2023-04-15T20:08:19;11.70;53.20
12981;DHT22;6555;50.468;8.480;2023-04-15T20:13:36;11.70;53.70
12981;DHT22;6555;50.468;8.480;2023-04-15T20:19:07;11.70;53.40
12981;DHT22;6555;50.468;8.480;2023-04-15T20:24:26;11.60;53.80
12981;DHT22;6555;50.468;8.480;2023-04-15T20:29:56;11.60;53.30
12981;DHT22;6555;50.468;8.480;2023-04-15T20:35:13;11.60;53.80
12981;DHT22;6555;50.468;8.480;2023-04-15T20:40:44;11.60;53.50
12981;DHT22;6555;50.468;8.480;2023-04-15T20:46:00;11.60;53.80
12981;DHT22;6555;50.468;8.480;2023-04-15T20:51:37;11.60;53.50
12981;DHT22;6555;50.468;8.480;2023-04-15T20:56:54;11.50;54.10
12981;DHT22;6555;50.468;8.480;2023-04-15T21:02:26;11.50;53.40
12981;DHT22;6555;50.468;8.480;2023-04-15T21:08:04;11.50;53.80
12981;DHT22;6555;50.468;8.480;2023-04-15T21:13:08;11.40;53.60
12981;DHT22;6555;50.468;8.480;2023-04-15T21:18:13;11.40;53.50
12981;DHT22;6555;50.468;8.480;2023-04-15T21:23:18;11.40;53.60
12981;DHT22;6555;50.468;8.480;2023-04-15T21:28:22;11.40;53.70
12981;DHT22;6555;50.468;8.480;2023-04-15T21:33:25;11.40;53.70
12981;DHT22;6555;50.468;8.480;2023-04-15T21:38:32;11.50;53.80
12981;DHT22;6555;50.468;8.480;2023-04-15T21:43:38;11.50;54.00
12981;DHT22;6555;50.468;8.480;2023-04-15T21:48:41;11.50;53.80
12981;DHT22;6555;50.468;8.480;2023-04-15T21:53:46;11.50;53.80
12981;DHT22;6555;50.468;8.480;2023-04-15T21:58:55;11.50;53.90
12981;DHT22;6555;50.468;8.480;2023-04-15T22:03:59;11.50;53.80
12981;DHT22;6555;50.468;8.480;2023-04-15T22:09:10;11.50;53.70
12981;DHT22;6555;50.468;8.480;2023-04-15T22:14:15;11.50;53.80
12981;DHT22;6555;50.468;8.480;2023-04-15T22:19:19;11.50;53.90
12981;DHT22;6555;50.468;8.480;2023-04-15T22:24:26;11.40;53.90
12981;DHT22;6555;50.468;8.480;2023-04-15T22:29:40;11.50;54.10
12981;DHT22;6555;50.468;8.480;2023-04-15T22:34:50;11.40;53.80
12981;DHT22;6555;50.468;8.480;2023-04-15T22:39:55;11.40;54.20
12981;DHT22;6555;50.468;8.480;2023-04-15T22:44:58;11.50;54.20
12981;DHT22;6555;50.468;8.480;2023-04-15T22:50:07;11.50;54.10
12981;DHT22;6555;50.468;8.480;2023-04-15T22:55:20;11.50;54.20
12981;DHT22;6555;50.468;8.480;2023-04-15T23:00:23;11.50;54.30
12981;DHT22;6555;50.468;8.480;2023-04-15T23:05:29;11.50;54.10
12981;DHT22;6555;50.468;8.480;2023-04-15T23:10:34;11.50;54.10
12981;DHT22;6555;50.468;8.480;2023-04-15T23:15:41;11.50;54.20
12981;DHT22;6555;50.468;8.480;2023-04-15T23:27:29;11.50;54.80
12981;DHT22;6555;50.468;8.480;2023-04-15T23:32:36;11.40;54.60
12981;DHT22;6555;50.468;8.480;2023-04-15T23:37:48;11.40;54.40
12981;DHT22;6555;50.468;8.480;2023-04-15T23:42:57;11.40;54.30
12981;DHT22;6555;50.468;8.480;2023-04-15T23:48:05;11.40;54.30
12981;DHT22;6555;50.468;8.480;2023-04-15T23:53:17;11.40;54.60
12981;DHT22;6555;50.468;8.480;2023-04-15T23:58:22;11.40;54.40
